Time;durP1;ratioP1;P1;durP2;ratioP2;P2;SDS_P1;SDS_P2;PMS_P1;PMS_P2;Temp;Humidity;BMP_temperature;BMP_pressure;BME280_temperature;BME280_humidity;BME280_pressure;Samples;Min_cycle;Max_cycle;Signal;HPM_P1;HPM_P2
2023/10/07 00:08:00;;;;;;;8.7;3.1;;;;;;;13.22;70.92;;;;;
2023/10/07 00:18:57;;;;;;;8.7;3.1;;;;;;;13.23;70.67;;;;;
2023/10/07 00:29:59;;;;;;;8.7;3.1;;;;;;;13.07;70.73;;;;;
2023/10/07 00:40:57;;;;;;;6.8;2.8;;;;;;;13.01;70.73;;;;;
2023/10/07 00:50:57;;;;;;;6.8;2.8;;;;;;;12.84;70.97;;;;;
2023/10/07 01:01:57;;;;;;;6.8;2.8;;;;;;;12.7;72.16;;;;;
2023/10/07 01:13:00;;;;;;;6.4;1.9;;;;;;;12.47;72.28;;;;;
2023/10/07 01:23:04;;;;;;;6.4;1.9;;;;;;;12.36;72.56;;;;;
2023/10/07 01:34:01;;;;;;;6.4;1.9;;;;;;;12.15;73.23;;;;;
2023/10/07 01:43:59;;;;;;;4.5;2.2;;;;;;;11.95;74.46;;;;;
2023/10/07 01:54:58;;;;;;;4.5;2.2;;;;;;;11.93;75.44;;;;;
2023/10/07 02:05:57;;;;;;;3.9;1.7;;;;;;;11.96;76.06;;;;;
2023/10/07 02:15:56;;;;;;;3.9;1.7;;;;;;;12.1;75.39;;;;;
2023/10/07 02:25:58;;;;;;;3.9;1.7;;;;;;;12.43;73.83;;;;;
2023/10/07 02:37:11;;;;;;;5.3;2.4;;;;;;;12.64;72.92;;;;;
2023/10/07 02:48:00;;;;;;;5.3;2.4;;;;;;;12.86;72.47;;;;;
2023/10/07 02:57:57;;;;;;;5.3;2.4;;;;;;;12.9;72.71;;;;;
2023/10/07 03:08:02;;;;;;;7.9;3.1;;;;;;;12.87;73.02;;;;;
2023/10/07 03:19:06;;;;;;;7.9;3.1;;;;;;;12.88;73.24;;;;;
2023/10/07 03:30:07;;;;;;;7.9;3.1;;;;;;;13.15;72.23;;;;;
2023/10/07 03:40:57;;;;;;;6.2;3.1;;;;;;;13.34;71.9;;;;;
2023/10/07 03:52:03;;;;;;;6.2;3.1;;;;;;;13.42;71.76;;;;;
2023/10/07 04:01:57;;;;;;;6.2;3.1;;;;;;;13.42;71.82;;;;;
2023/10/07 04:12:57;;;;;;;7.7;3.6;;;;;;;13.32;72.14;;;;;
2023/10/07 04:23:00;;;;;;;7.7;3.6;;;;;;;13.17;73.34;;;;;
2023/10/07 04:34:02;;;;;;;7.7;3.6;;;;;;;13.34;71.82;;;;;
2023/10/07 04:43:59;;;;;;;7.7;3.4;;;;;;;13.27;72.21;;;;;
2023/10/07 04:54:58;;;;;;;7.7;3.4;;;;;;;13.28;71.55;;;;;
2023/10/07 05:05:00;;;;;;;6.4;3.5;;;;;;;13.36;71.31;;;;;
2023/10/07 05:15:57;;;;;;;6.4;3.5;;;;;;;13.51;71.29;;;;;
2023/10/07 05:26:59;;;;;;;6.4;3.5;;;;;;;13.81;70.33;;;;;
2023/10/07 05:37:59;;;;;;;7.1;4.4;;;;;;;13.98;69.93;;;;;
2023/10/07 05:47:57;;;;;;;7.1;4.4;;;;;;;14.08;70.6;;;;;
2023/10/07 05:58:57;;;;;;;7.1;4.4;;;;;;;14.2;70.56;;;;;
2023/10/07 06:09:57;;;;;;;6.9;3.7;;;;;;;14.32;70.1;;;;;
2023/10/07 06:19:57;;;;;;;6.9;3.7;;;;;;;14.43;69.58;;;;;
2023/10/07 06:22:16;;;;;;;6.9;3.7;;;;;;;14.48;69.79;;;;;
2023/10/07 06:32:25;;;;;;;6.9;3.7;;;;;;;14.92;69.68;;;;;
2023/10/07 06:42:21;;;;;;;8.4;4.3;;;;;;;15.22;70.06;;;;;
2023/10/07 06:52:17;;;;;;;8.4;4.3;;;;;;;15.41;68.6;;;;;
2023/10/07 07:02:18;;;;;;;8.4;4.3;;;;;;;15.6;69;;;;;
2023/10/07 07:13:22;;;;;;;8.7;4;;;;;;;16;69.56;;;;;
2023/10/07 07:23:17;;;;;;;8.7;4;;;;;;;16.12;69.16;;;;;
2023/10/07 07:33:22;;;;;;;8.7;4;;;;;;;16.33;68.72;;;;;
2023/10/07 07:43:19;;;;;;;7.5;4.3;;;;;;;16.52;67.55;;;;;
2023/10/07 07:54:17;;;;;;;7.5;4.3;;;;;;;16.5;68;;;;;
2023/10/07 08:04:17;;;;;;;7.5;4.3;;;;;;;16.4;68.61;;;;;
2023/10/07 08:15:21;;;;;;;8.3;4.2;;;;;;;16.53;68.93;;;;;
2023/10/07 08:26:22;;;;;;;8.3;4.2;;;;;;;16.47;69.31;;;;;
2023/10/07 08:36:17;;;;;;;7.7;4;;;;;;;16.38;70.01;;;;;
2023/10/07 08:47:17;;;;;;;7.7;4;;;;;;;16.33;70.92;;;;;
2023/10/07 08:57:22;;;;;;;7.7;4;;;;;;;16.62;70.81;;;;;
2023/10/07 09:07:20;;;;;;;8;3.8;;;;;;;17.18;68.44;;;;;
2023/10/07 09:17:20;;;;;;;8;3.8;;;;;;;17.66;67.77;;;;;
2023/10/07 09:27:17;;;;;;;8;3.8;;;;;;;18.2;66.59;;;;;
2023/10/07 09:38:27;;;;;;;7.3;3.9;;;;;;;18.95;66.59;;;;;
2023/10/07 09:49:19;;;;;;;7.3;3.9;;;;;;;19.67;61.4;;;;;
2023/10/07 10:01:02;;;;;;;7.3;3.9;;;;;;;20;61.36;;;;;
2023/10/07 10:10:17;;;;;;;8;3.5;;;;;;;20.4;59.94;;;;;
2023/10/07 10:21:17;;;;;;;8;3.5;;;;;;;20.6;59.65;;;;;
2023/10/07 10:32:17;;;;;;;8;3.5;;;;;;;20.55;57.91;;;;;
2023/10/07 10:42:17;;;;;;;8.1;3.4;;;;;;;21.18;58.09;;;;;
2023/10/07 10:53:17;;;;;;;8.1;3.4;;;;;;;21.08;57.71;;;;;
2023/10/07 11:04:19;;;;;;;8.1;3.4;;;;;;;20.98;54.77;;;;;
2023/10/07 11:15:24;;;;;;;8.2;3.4;;;;;;;21.1;55.41;;;;;
2023/10/07 11:25:18;;;;;;;8.2;3.4;;;;;;;20.67;55.67;;;;;
2023/10/07 11:35:19;;;;;;;10.1;4.3;;;;;;;20.89;56.95;;;;;
2023/10/07 11:45:17;;;;;;;10.1;4.3;;;;;;;21.15;53.95;;;;;
2023/10/07 11:55:17;;;;;;;10.1;4.3;;;;;;;21.63;53.79;;;;;
2023/10/07 12:06:17;;;;;;;9.8;4.2;;;;;;;21.46;53.35;;;;;
2023/10/07 12:16:17;;;;;;;9.8;4.2;;;;;;;21.56;52.04;;;;;
2023/10/07 12:27:17;;;;;;;9.8;4.2;;;;;;;21.95;51.95;;;;;
2023/10/07 12:37:17;;;;;;;9.7;4.4;;;;;;;22.21;53.63;;;;;
2023/10/07 12:48:18;;;;;;;9.7;4.4;;;;;;;21.65;52.51;;;;;
2023/10/07 12:58:18;;;;;;;9.7;4.4;;;;;;;21.37;53.53;;;;;
2023/10/07 13:09:17;;;;;;;8.5;3.7;;;;;;;20.95;54.15;;;;;
2023/10/07 13:19:20;;;;;;;8.5;3.7;;;;;;;21.49;52.72;;;;;
2023/10/07 13:30:17;;;;;;;8.5;3.7;;;;;;;21.4;52.66;;;;;
2023/10/07 13:41:17;;;;;;;7.7;4.5;;;;;;;20.64;53.15;;;;;
2023/10/07 13:52:21;;;;;;;7.7;4.5;;;;;;;20.37;54.43;;;;;
2023/10/07 14:03:19;;;;;;;7.7;4.5;;;;;;;20.15;55.32;;;;;
2023/10/07 14:13:18;;;;;;;8.9;4.7;;;;;;;19.92;56.3;;;;;
2023/10/07 14:23:17;;;;;;;8.9;4.7;;;;;;;19.66;57.45;;;;;
2023/10/07 14:34:17;;;;;;;8.9;4.7;;;;;;;19.59;57.79;;;;;
2023/10/07 14:45:19;;;;;;;8.3;4.8;;;;;;;19.55;58.65;;;;;
2023/10/07 14:56:21;;;;;;;8.3;4.8;;;;;;;19.56;58.86;;;;;
2023/10/07 15:06:17;;;;;;;13.2;5.2;;;;;;;19.44;59.52;;;;;
2023/10/07 15:16:17;;;;;;;13.2;5.2;;;;;;;19.31;60.86;;;;;
2023/10/07 15:26:17;;;;;;;13.2;5.2;;;;;;;19.13;61.85;;;;;
2023/10/07 15:37:17;;;;;;;9.3;4.6;;;;;;;18.97;62.64;;;;;
2023/10/07 15:47:18;;;;;;;9.3;4.6;;;;;;;18.74;63.8;;;;;
2023/10/07 15:57:17;;;;;;;9.3;4.6;;;;;;;18.47;66.36;;;;;
2023/10/07 16:08:17;;;;;;;9;4.3;;;;;;;18.21;67.18;;;;;
2023/10/07 16:19:18;;;;;;;9;4.3;;;;;;;18.1;68.41;;;;;
2023/10/07 16:30:18;;;;;;;9;4.3;;;;;;;17.99;68.9;;;;;
2023/10/07 16:41:17;;;;;;;8.6;4.6;;;;;;;17.9;69.75;;;;;
2023/10/07 16:51:17;;;;;;;8.6;4.6;;;;;;;17.82;70.23;;;;;
2023/10/07 17:01:17;;;;;;;8.6;4.6;;;;;;;17.81;70.21;;;;;
2023/10/07 17:11:18;;;;;;;8.5;4.5;;;;;;;17.85;70.05;;;;;
2023/10/07 17:22:17;;;;;;;8.5;4.5;;;;;;;17.9;70.02;;;;;
2023/10/07 17:32:17;;;;;;;8.5;4.5;;;;;;;17.95;69.97;;;;;
2023/10/07 17:42:17;;;;;;;7;4.5;;;;;;;18.09;69.5;;;;;
2023/10/07 17:53:17;;;;;;;7;4.5;;;;;;;18.13;71.47;;;;;
2023/10/07 18:03:19;;;;;;;;;;;;;;;18.28;69.64;;;;;
2023/10/07 18:13:17;;;;;;;7.9;4.1;;;;;;;18.32;69.37;;;;;
2023/10/07 18:23:17;;;;;;;7.9;4.1;;;;;;;18.25;70.76;;;;;
2023/10/07 18:33:17;;;;;;;7.9;4.1;;;;;;;17.82;74.38;;;;;
2023/10/07 18:44:17;;;;;;;8.4;4.3;;;;;;;17.56;75.49;;;;;
2023/10/07 18:54:17;;;;;;;8.4;4.3;;;;;;;17.4;75.43;;;;;
2023/10/07 19:05:17;;;;;;;7.3;3.8;;;;;;;17.45;73.48;;;;;
2023/10/07 19:16:17;;;;;;;7.3;3.8;;;;;;;17.51;73.53;;;;;
2023/10/07 19:27:17;;;;;;;7.3;3.8;;;;;;;17.14;77.13;;;;;
2023/10/07 19:37:17;;;;;;;11.7;4.6;;;;;;;16.77;78.82;;;;;
2023/10/07 19:48:17;;;;;;;11.7;4.6;;;;;;;16.94;76.85;;;;;
2023/10/07 19:59:17;;;;;;;11.7;4.6;;;;;;;16.95;77.13;;;;;
2023/10/07 20:09:18;;;;;;;8.1;4.5;;;;;;;16.98;75.91;;;;;
2023/10/07 20:20:17;;;;;;;8.1;4.5;;;;;;;17.17;74.97;;;;;
2023/10/07 20:31:17;;;;;;;8.1;4.5;;;;;;;17.26;74.2;;;;;
2023/10/07 20:42:17;;;;;;;9.1;4;;;;;;;17.3;73.77;;;;;
2023/10/07 20:53:18;;;;;;;9.1;4;;;;;;;17.43;73.51;;;;;
2023/10/07 21:03:17;;;;;;;9.1;4;;;;;;;17.49;73.02;;;;;
2023/10/07 21:13:17;;;;;;;8.1;4.2;;;;;;;17.54;72.75;;;;;
2023/10/07 21:23:17;;;;;;;8.1;4.2;;;;;;;17.62;71.97;;;;;
2023/10/07 21:34:17;;;;;;;8.1;4.2;;;;;;;17.79;71.03;;;;;
2023/10/07 21:44:18;;;;;;;8.7;4.3;;;;;;;17.9;70.71;;;;;
2023/10/07 21:55:17;;;;;;;8.7;4.3;;;;;;;17.94;70.48;;;;;
2023/10/07 22:05:19;;;;;;;13.1;4.6;;;;;;;17.92;69.73;;;;;
2023/10/07 22:15:18;;;;;;;13.1;4.6;;;;;;;17.92;69.58;;;;;
2023/10/07 22:26:18;;;;;;;13.1;4.6;;;;;;;17.95;69.44;;;;;
2023/10/07 22:36:21;;;;;;;8.2;4.5;;;;;;;17.82;70.89;;;;;
2023/10/07 22:47:17;;;;;;;8.2;4.5;;;;;;;17.81;69.99;;;;;
2023/10/07 22:58:18;;;;;;;8.2;4.5;;;;;;;17.76;69.82;;;;;
2023/10/07 23:08:18;;;;;;;9.6;4.6;;;;;;;17.7;69.89;;;;;
2023/10/07 23:18:20;;;;;;;9.6;4.6;;;;;;;17.69;69.71;;;;;
2023/10/07 23:29:17;;;;;;;9.6;4.6;;;;;;;17.69;69.57;;;;;
2023/10/07 23:40:29;;;;;;;7.8;4.2;;;;;;;17.61;69.75;;;;;
2023/10/07 23:51:19;;;;;;;7.8;4.2;;;;;;;17.62;69.66;;;;;
